Fishtail, MT (59028)

4:58 PM MDT on August 20, 2014 (GMT -0600)
RAWS FISHTAIL MT US | Change Station
CLOSE
Current Station
Personal Weather Station
Location: Fishtail, MT
Elevation: 4549 ft
Nearby Weather Stations

Elev 4549 ft 45.46 °N, 109.57 °W | Updated 36 minutes ago

Overcast
Overcast
79 °F
Feels Like 78 °F
N
7
Wind Variable Wind from SE
Gusts 16.0 mph

Today
High -- | Low -- °F
--% Chance of Precip.
Yesterday
High -- | Low -- °F
Precip. -- in
6:24 AM 8:16 PM
Waning Crescent, 18% visible
Pressure 29.82 in
Visibility 8.0 miles
Clouds Scattered Clouds 9500 ft
Mostly Cloudy 12000 ft
Heat Index 78 °F
Dew Point 43 °F
Humidity 28%
Rainfall 0.01 in
Snow Depth 0 in
UV 2 out of 12
Pollen 7.90 out of 12
Air Quality Not available.
Flu Activity Not available.
METAR KLVM 202253Z AUTO 26021G33KT 8SM -RA SCT095 BKN120 16/11 A2992 RMK AO2 PK WND 26045/2221 LTG DSNT SE-SW RAB39 SLP098 P0001 T01560111

More Conditions Fewer Conditions

Pressure 29.82 in
Visibility 8.0 miles
Clouds Scattered Clouds 9500 ft
Mostly Cloudy 12000 ft
Heat Index 78 °F
Dew Point 43 °F
Humidity 28%
Rainfall 0.01 in
Snow Depth 0 in
UV 2 out of 12
Pollen 7.90 out of 12
Air Quality Not available.
Flu Activity Not available.
METAR KLVM 202253Z AUTO 26021G33KT 8SM -RA SCT095 BKN120 16/11 A2992 RMK AO2 PK WND 26045/2221 LTG DSNT SE-SW RAB39 SLP098 P0001 T01560111

More Conditions Fewer Conditions

10-Day Weather Forecast

Almanac

Astronomy

Aug. 20, 2014 Rise Set
Actual Time 6:24 AM MDT 8:16 PM MDT
Civil Twilight 5:53 AM MDT 8:48 PM MDT
Nautical Twilight 5:14 AM MDT 9:27 PM MDT
Astronomical Twilight 4:31 AM MDT 10:09 PM MDT
Moon 2:02 AM MDT 5:09 PM MDT
Length of Visible Light 14h 55m
Length of Day
13h 51m
Tomorrow will be 2m 55s shorter.
Waning Crescent, 18% of the Moon is Illuminated
Today
Waning Crescent
Aug 25
New
Sep 2
First Quarter
Sep 8
Full
Sep 15
Last Quarter

Today's Extremes

State Highs State Lows

Community

WunderPhotos

Upload Photos

1,745,791 photos uploaded!

Nearby

Snow Depth

Station Depth Elevation
Cole Creek 0 in 7850 ft
White Mill 1 in 8700 ft
Northeast Entrance 1 in 7350 ft
Porcupine 0 in 6500 ft
Shower Falls 0 in 8100 ft

Earthquake Activity

City Distance Mag. Time & Date
No recent earthquake activity has been reported nearby.
Minimum magnitude displayed is 2.5.

Coastal Water Temperatures

Place Temperature
No Stations Reporting

Nearby Weather Stations